sensor_id;sensor_type;location;lat;lon;timestamp;temperature;humidity
72206;DHT22;60111;48.286;7.812;2022-10-16T00:02:29;15.60;99.90
72206;DHT22;60111;48.286;7.812;2022-10-16T00:05:02;15.50;99.90
72206;DHT22;60111;48.286;7.812;2022-10-16T00:07:35;15.50;99.90
72206;DHT22;60111;48.286;7.812;2022-10-16T00:10:08;15.50;99.90
72206;DHT22;60111;48.286;7.812;2022-10-16T00:12:40;15.50;99.90
72206;DHT22;60111;48.286;7.812;2022-10-16T00:15:14;15.50;99.90
72206;DHT22;60111;48.286;7.812;2022-10-16T00:17:46;15.50;99.90
72206;DHT22;60111;48.286;7.812;2022-10-16T00:20:19;15.50;99.90
72206;DHT22;60111;48.286;7.812;2022-10-16T00:22:51;15.50;99.90
72206;DHT22;60111;48.286;7.812;2022-10-16T00:25:24;15.50;99.90
72206;DHT22;60111;48.286;7.812;2022-10-16T00:27:57;15.50;99.90
72206;DHT22;60111;48.286;7.812;2022-10-16T00:30:30;15.50;99.90
72206;DHT22;60111;48.286;7.812;2022-10-16T00:33:02;15.50;99.90
72206;DHT22;60111;48.286;7.812;2022-10-16T00:35:35;15.50;99.90
72206;DHT22;60111;48.286;7.812;2022-10-16T00:38:07;15.50;99.90
72206;DHT22;60111;48.286;7.812;2022-10-16T00:40:40;15.50;99.90
72206;DHT22;60111;48.286;7.812;2022-10-16T00:46:27;15.50;99.90
72206;DHT22;60111;48.286;7.812;2022-10-16T00:49:03;15.50;99.90
72206;DHT22;60111;48.286;7.812;2022-10-16T00:51:39;15.50;99.90
72206;DHT22;60111;48.286;7.812;2022-10-16T00:54:25;15.50;99.90
72206;DHT22;60111;48.286;7.812;2022-10-16T00:57:04;15.50;99.90
72206;DHT22;60111;48.286;7.812;2022-10-16T00:59:36;15.50;99.90
72206;DHT22;60111;48.286;7.812;2022-10-16T01:02:11;15.50;99.90
72206;DHT22;60111;48.286;7.812;2022-10-16T01:04:49;15.50;99.90
72206;DHT22;60111;48.286;7.812;2022-10-16T01:10:38;15.40;99.90
72206;DHT22;60111;48.286;7.812;2022-10-16T01:13:07;15.40;99.90
72206;DHT22;60111;48.286;7.812;2022-10-16T01:16:04;15.40;99.90
72206;DHT22;60111;48.286;7.812;2022-10-16T01:18:53;15.40;99.90
72206;DHT22;60111;48.286;7.812;2022-10-16T01:21:28;15.30;99.90
72206;DHT22;60111;48.286;7.812;2022-10-16T01:27:13;15.40;99.90
72206;DHT22;60111;48.286;7.812;2022-10-16T01:29:56;15.30;99.90
72206;DHT22;60111;48.286;7.812;2022-10-16T01:32:44;15.30;99.90
72206;DHT22;60111;48.286;7.812;2022-10-16T01:35:35;15.30;99.90
72206;DHT22;60111;48.286;7.812;2022-10-16T01:40:49;15.20;99.90
72206;DHT22;60111;48.286;7.812;2022-10-16T01:43:31;15.20;99.90
72206;DHT22;60111;48.286;7.812;2022-10-16T01:46:06;15.10;99.90
72206;DHT22;60111;48.286;7.812;2022-10-16T01:48:40;15.10;99.90
72206;DHT22;60111;48.286;7.812;2022-10-16T01:51:15;15.10;99.90
72206;DHT22;60111;48.286;7.812;2022-10-16T01:53:52;15.10;99.90
72206;DHT22;60111;48.286;7.812;2022-10-16T01:56:25;15.10;99.90
72206;DHT22;60111;48.286;7.812;2022-10-16T01:59:35;15.00;99.90
72206;DHT22;60111;48.286;7.812;2022-10-16T02:01:42;15.10;99.90
72206;DHT22;60111;48.286;7.812;2022-10-16T02:04:38;15.00;99.90
72206;DHT22;60111;48.286;7.812;2022-10-16T02:07:07;15.00;99.90
72206;DHT22;60111;48.286;7.812;2022-10-16T02:09:40;15.00;99.90
72206;DHT22;60111;48.286;7.812;2022-10-16T02:12:17;15.10;99.90
72206;DHT22;60111;48.286;7.812;2022-10-16T02:14:49;15.10;99.90
72206;DHT22;60111;48.286;7.812;2022-10-16T02:17:23;15.10;99.90
72206;DHT22;60111;48.286;7.812;2022-10-16T02:19:57;15.10;99.90
72206;DHT22;60111;48.286;7.812;2022-10-16T02:22:38;15.10;99.90
72206;DHT22;60111;48.286;7.812;2022-10-16T02:25:29;15.10;99.90
72206;DHT22;60111;48.286;7.812;2022-10-16T02:32:59;15.00;99.90
72206;DHT22;60111;48.286;7.812;2022-10-16T02:35:33;15.00;99.90
72206;DHT22;60111;48.286;7.812;2022-10-16T02:38:06;15.00;99.90
72206;DHT22;60111;48.286;7.812;2022-10-16T02:40:40;15.00;99.90
72206;DHT22;60111;48.286;7.812;2022-10-16T02:43:15;15.00;99.90
72206;DHT22;60111;48.286;7.812;2022-10-16T02:45:48;15.00;99.90
72206;DHT22;60111;48.286;7.812;2022-10-16T02:48:20;15.00;99.90
72206;DHT22;60111;48.286;7.812;2022-10-16T02:50:53;15.00;99.90
72206;DHT22;60111;48.286;7.812;2022-10-16T02:53:26;15.10;99.90
72206;DHT22;60111;48.286;7.812;2022-10-16T02:55:58;15.00;99.90
72206;DHT22;60111;48.286;7.812;2022-10-16T02:58:31;15.00;99.90
72206;DHT22;60111;48.286;7.812;2022-10-16T03:01:05;14.90;99.90
72206;DHT22;60111;48.286;7.812;2022-10-16T03:03:38;15.00;99.90
72206;DHT22;60111;48.286;7.812;2022-10-16T03:06:10;14.90;99.90
72206;DHT22;60111;48.286;7.812;2022-10-16T03:08:43;14.90;99.90
72206;DHT22;60111;48.286;7.812;2022-10-16T03:11:21;14.90;99.90
72206;DHT22;60111;48.286;7.812;2022-10-16T03:13:50;14.90;99.90
72206;DHT22;60111;48.286;7.812;2022-10-16T03:16:22;14.80;99.90
72206;DHT22;60111;48.286;7.812;2022-10-16T03:18:55;14.90;99.90
72206;DHT22;60111;48.286;7.812;2022-10-16T03:21:27;14.90;99.90
72206;DHT22;60111;48.286;7.812;2022-10-16T03:24:01;14.80;99.90
72206;DHT22;60111;48.286;7.812;2022-10-16T03:26:33;14.80;99.90
72206;DHT22;60111;48.286;7.812;2022-10-16T03:29:06;14.80;99.90
72206;DHT22;60111;48.286;7.812;2022-10-16T03:31:39;14.80;99.90
72206;DHT22;60111;48.286;7.812;2022-10-16T03:34:11;14.80;99.90
72206;DHT22;60111;48.286;7.812;2022-10-16T03:36:44;14.80;99.90
72206;DHT22;60111;48.286;7.812;2022-10-16T03:39:16;14.80;99.90
72206;DHT22;60111;48.286;7.812;2022-10-16T03:41:49;14.80;99.90
72206;DHT22;60111;48.286;7.812;2022-10-16T03:44:22;14.80;99.90
72206;DHT22;60111;48.286;7.812;2022-10-16T03:46:54;14.80;99.90
72206;DHT22;60111;48.286;7.812;2022-10-16T03:49:27;14.80;99.90
72206;DHT22;60111;48.286;7.812;2022-10-16T03:52:00;14.80;99.90
72206;DHT22;60111;48.286;7.812;2022-10-16T03:54:33;14.80;99.90
72206;DHT22;60111;48.286;7.812;2022-10-16T03:57:05;14.80;99.90
72206;DHT22;60111;48.286;7.812;2022-10-16T03:59:38;14.70;99.90
72206;DHT22;60111;48.286;7.812;2022-10-16T04:02:10;14.70;99.90
72206;DHT22;60111;48.286;7.812;2022-10-16T04:04:43;14.80;99.90
72206;DHT22;60111;48.286;7.812;2022-10-16T04:07:16;14.70;99.90
72206;DHT22;60111;48.286;7.812;2022-10-16T04:09:48;14.80;99.90
72206;DHT22;60111;48.286;7.812;2022-10-16T04:12:22;14.70;99.90
72206;DHT22;60111;48.286;7.812;2022-10-16T04:14:56;14.70;99.90
72206;DHT22;60111;48.286;7.812;2022-10-16T04:17:30;14.70;99.90
72206;DHT22;60111;48.286;7.812;2022-10-16T04:20:03;14.70;99.90
72206;DHT22;60111;48.286;7.812;2022-10-16T04:22:36;14.70;99.90
72206;DHT22;60111;48.286;7.812;2022-10-16T04:25:09;14.80;99.90
72206;DHT22;60111;48.286;7.812;2022-10-16T04:27:43;14.80;99.90
72206;DHT22;60111;48.286;7.812;2022-10-16T04:30:17;14.80;99.90
72206;DHT22;60111;48.286;7.812;2022-10-16T04:32:50;14.80;99.90
72206;DHT22;60111;48.286;7.812;2022-10-16T04:35:23;14.70;99.90
72206;DHT22;60111;48.286;7.812;2022-10-16T04:37:58;14.80;99.90
72206;DHT22;60111;48.286;7.812;2022-10-16T04:40:30;14.70;99.90
72206;DHT22;60111;48.286;7.812;2022-10-16T04:43:07;14.70;99.90
72206;DHT22;60111;48.286;7.812;2022-10-16T04:45:40;14.70;99.90
72206;DHT22;60111;48.286;7.812;2022-10-16T04:48:13;14.70;99.90
72206;DHT22;60111;48.286;7.812;2022-10-16T04:50:46;14.80;99.90
72206;DHT22;60111;48.286;7.812;2022-10-16T04:53:20;14.70;99.90
72206;DHT22;60111;48.286;7.812;2022-10-16T04:55:52;14.70;99.90
72206;DHT22;60111;48.286;7.812;2022-10-16T04:58:25;14.60;99.90
72206;DHT22;60111;48.286;7.812;2022-10-16T05:00:58;14.60;99.90
72206;DHT22;60111;48.286;7.812;2022-10-16T05:03:30;14.60;99.90
72206;DHT22;60111;48.286;7.812;2022-10-16T05:06:10;14.60;99.90
72206;DHT22;60111;48.286;7.812;2022-10-16T05:08:39;14.60;99.90
72206;DHT22;60111;48.286;7.812;2022-10-16T05:11:16;14.60;99.90
72206;DHT22;60111;48.286;7.812;2022-10-16T05:13:45;14.60;99.90
72206;DHT22;60111;48.286;7.812;2022-10-16T05:16:17;14.60;99.90
72206;DHT22;60111;48.286;7.812;2022-10-16T05:18:51;14.50;99.90
72206;DHT22;60111;48.286;7.812;2022-10-16T05:21:24;14.60;99.90
72206;DHT22;60111;48.286;7.812;2022-10-16T05:23:57;14.60;99.90
72206;DHT22;60111;48.286;7.812;2022-10-16T05:26:30;14.60;99.90
72206;DHT22;60111;48.286;7.812;2022-10-16T05:29:03;14.60;99.90
72206;DHT22;60111;48.286;7.812;2022-10-16T05:31:36;14.60;99.90
72206;DHT22;60111;48.286;7.812;2022-10-16T05:34:09;14.70;99.90
72206;DHT22;60111;48.286;7.812;2022-10-16T05:36:41;14.70;99.90
72206;DHT22;60111;48.286;7.812;2022-10-16T05:39:16;14.70;99.90
72206;DHT22;60111;48.286;7.812;2022-10-16T05:41:50;14.70;99.90
72206;DHT22;60111;48.286;7.812;2022-10-16T05:44:23;14.70;99.90
72206;DHT22;60111;48.286;7.812;2022-10-16T05:46:55;14.70;99.90
72206;DHT22;60111;48.286;7.812;2022-10-16T05:49:28;14.70;99.90
72206;DHT22;60111;48.286;7.812;2022-10-16T05:52:04;14.70;99.90
72206;DHT22;60111;48.286;7.812;2022-10-16T05:54:36;14.70;99.90
72206;DHT22;60111;48.286;7.812;2022-10-16T05:57:09;14.70;99.90
72206;DHT22;60111;48.286;7.812;2022-10-16T05:59:41;14.70;99.90
72206;DHT22;60111;48.286;7.812;2022-10-16T06:02:16;14.70;99.90
72206;DHT22;60111;48.286;7.812;2022-10-16T06:04:52;14.70;99.90
72206;DHT22;60111;48.286;7.812;2022-10-16T06:07:22;14.70;99.90
72206;DHT22;60111;48.286;7.812;2022-10-16T06:09:58;14.70;99.90
72206;DHT22;60111;48.286;7.812;2022-10-16T06:12:30;14.70;99.90
72206;DHT22;60111;48.286;7.812;2022-10-16T06:15:05;14.80;99.90
72206;DHT22;60111;48.286;7.812;2022-10-16T06:21:21;14.90;99.90
72206;DHT22;60111;48.286;7.812;2022-10-16T06:23:57;14.90;99.90
72206;DHT22;60111;48.286;7.812;2022-10-16T06:26:30;15.00;99.90
72206;DHT22;60111;48.286;7.812;2022-10-16T06:29:03;15.00;99.90
72206;DHT22;60111;48.286;7.812;2022-10-16T06:31:36;15.00;99.90
72206;DHT22;60111;48.286;7.812;2022-10-16T06:34:10;15.00;99.90
72206;DHT22;60111;48.286;7.812;2022-10-16T06:36:43;15.00;99.90
72206;DHT22;60111;48.286;7.812;2022-10-16T06:39:15;14.90;99.90
72206;DHT22;60111;48.286;7.812;2022-10-16T06:41:48;14.90;99.90
72206;DHT22;60111;48.286;7.812;2022-10-16T06:44:20;14.90;99.90
72206;DHT22;60111;48.286;7.812;2022-10-16T06:46:53;14.90;99.90
72206;DHT22;60111;48.286;7.812;2022-10-16T06:49:25;14.90;99.90
72206;DHT22;60111;48.286;7.812;2022-10-16T06:52:01;15.00;99.90
72206;DHT22;60111;48.286;7.812;2022-10-16T06:54:33;15.00;99.90
72206;DHT22;60111;48.286;7.812;2022-10-16T06:57:08;15.00;99.90
72206;DHT22;60111;48.286;7.812;2022-10-16T06:59:40;15.00;99.90
72206;DHT22;60111;48.286;7.812;2022-10-16T07:02:12;15.00;99.90
72206;DHT22;60111;48.286;7.812;2022-10-16T07:04:45;15.10;99.90
72206;DHT22;60111;48.286;7.812;2022-10-16T07:07:18;15.10;99.90
72206;DHT22;60111;48.286;7.812;2022-10-16T07:09:50;15.20;99.90
72206;DHT22;60111;48.286;7.812;2022-10-16T07:12:23;15.20;99.90
72206;DHT22;60111;48.286;7.812;2022-10-16T07:14:56;15.20;99.90
72206;DHT22;60111;48.286;7.812;2022-10-16T07:17:28;15.30;99.90
72206;DHT22;60111;48.286;7.812;2022-10-16T07:20:02;15.30;99.90
72206;DHT22;60111;48.286;7.812;2022-10-16T07:22:34;15.30;99.90
72206;DHT22;60111;48.286;7.812;2022-10-16T07:25:08;15.40;99.90
72206;DHT22;60111;48.286;7.812;2022-10-16T07:27:40;15.40;99.90
72206;DHT22;60111;48.286;7.812;2022-10-16T07:30:13;15.40;99.90
72206;DHT22;60111;48.286;7.812;2022-10-16T07:32:45;15.50;99.90
72206;DHT22;60111;48.286;7.812;2022-10-16T07:35:18;15.50;99.90
72206;DHT22;60111;48.286;7.812;2022-10-16T07:37:51;15.50;99.90
72206;DHT22;60111;48.286;7.812;2022-10-16T07:40:23;15.50;99.90
72206;DHT22;60111;48.286;7.812;2022-10-16T07:42:57;15.50;99.90
72206;DHT22;60111;48.286;7.812;2022-10-16T07:45:31;15.60;99.90
72206;DHT22;60111;48.286;7.812;2022-10-16T07:48:04;15.60;99.90
72206;DHT22;60111;48.286;7.812;2022-10-16T07:50:36;15.60;99.90
72206;DHT22;60111;48.286;7.812;2022-10-16T07:53:09;15.70;99.90
72206;DHT22;60111;48.286;7.812;2022-10-16T07:55:42;15.80;99.90
72206;DHT22;60111;48.286;7.812;2022-10-16T07:58:17;15.80;99.90
72206;DHT22;60111;48.286;7.812;2022-10-16T08:00:49;15.80;99.90
72206;DHT22;60111;48.286;7.812;2022-10-16T08:03:22;15.90;99.90
72206;DHT22;60111;48.286;7.812;2022-10-16T08:05:56;16.00;99.90
72206;DHT22;60111;48.286;7.812;2022-10-16T08:08:29;16.10;99.90
72206;DHT22;60111;48.286;7.812;2022-10-16T08:11:02;16.20;99.90
72206;DHT22;60111;48.286;7.812;2022-10-16T08:13:35;16.20;99.90
72206;DHT22;60111;48.286;7.812;2022-10-16T08:16:08;16.20;99.90
72206;DHT22;60111;48.286;7.812;2022-10-16T08:18:41;16.30;99.90
72206;DHT22;60111;48.286;7.812;2022-10-16T08:21:17;16.30;99.90
72206;DHT22;60111;48.286;7.812;2022-10-16T08:23:50;16.40;99.90
72206;DHT22;60111;48.286;7.812;2022-10-16T08:26:23;16.50;99.90
72206;DHT22;60111;48.286;7.812;2022-10-16T08:28:56;16.60;99.90
72206;DHT22;60111;48.286;7.812;2022-10-16T08:31:29;16.70;99.90
72206;DHT22;60111;48.286;7.812;2022-10-16T08:34:01;16.90;99.90
72206;DHT22;60111;48.286;7.812;2022-10-16T08:36:34;17.10;99.90
72206;DHT22;60111;48.286;7.812;2022-10-16T08:39:06;17.30;99.90
72206;DHT22;60111;48.286;7.812;2022-10-16T08:45:05;17.40;99.90
72206;DHT22;60111;48.286;7.812;2022-10-16T08:48:08;17.50;99.90
72206;DHT22;60111;48.286;7.812;2022-10-16T08:50:40;17.70;99.90
72206;DHT22;60111;48.286;7.812;2022-10-16T08:53:44;18.00;99.90
72206;DHT22;60111;48.286;7.812;2022-10-16T08:56:17;18.20;99.90
72206;DHT22;60111;48.286;7.812;2022-10-16T08:58:50;18.40;99.90
72206;DHT22;60111;48.286;7.812;2022-10-16T09:01:25;18.50;99.90
72206;DHT22;60111;48.286;7.812;2022-10-16T09:07:16;18.70;99.90
72206;DHT22;60111;48.286;7.812;2022-10-16T09:09:53;18.90;99.90
72206;DHT22;60111;48.286;7.812;2022-10-16T09:12:30;19.10;99.90
72206;DHT22;60111;48.286;7.812;2022-10-16T09:20:58;19.50;99.90
72206;DHT22;60111;48.286;7.812;2022-10-16T09:23:34;19.60;99.90
72206;DHT22;60111;48.286;7.812;2022-10-16T09:26:09;19.80;99.90
72206;DHT22;60111;48.286;7.812;2022-10-16T09:28:40;20.00;99.90
72206;DHT22;60111;48.286;7.812;2022-10-16T09:31:18;20.30;99.90
72206;DHT22;60111;48.286;7.812;2022-10-16T09:33:58;20.40;99.90
72206;DHT22;60111;48.286;7.812;2022-10-16T09:36:28;20.60;99.90
72206;DHT22;60111;48.286;7.812;2022-10-16T09:39:07;20.70;99.90
72206;DHT22;60111;48.286;7.812;2022-10-16T09:41:42;20.60;99.90
72206;DHT22;60111;48.286;7.812;2022-10-16T09:47:12;20.40;99.90
72206;DHT22;60111;48.286;7.812;2022-10-16T09:49:36;20.40;99.90
72206;DHT22;60111;48.286;7.812;2022-10-16T09:52:14;20.30;99.90
72206;DHT22;60111;48.286;7.812;2022-10-16T09:54:54;20.30;99.90
72206;DHT22;60111;48.286;7.812;2022-10-16T09:57:28;20.20;99.90
72206;DHT22;60111;48.286;7.812;2022-10-16T10:00:04;20.20;99.90
72206;DHT22;60111;48.286;7.812;2022-10-16T10:02:38;20.20;99.90
72206;DHT22;60111;48.286;7.812;2022-10-16T10:05:19;20.20;99.90
72206;DHT22;60111;48.286;7.812;2022-10-16T10:08:01;20.40;99.90
72206;DHT22;60111;48.286;7.812;2022-10-16T10:10:41;20.40;99.90
72206;DHT22;60111;48.286;7.812;2022-10-16T10:13:20;20.50;99.90
72206;DHT22;60111;48.286;7.812;2022-10-16T10:15:54;20.50;99.90
72206;DHT22;60111;48.286;7.812;2022-10-16T10:18:27;20.60;99.90
72206;DHT22;60111;48.286;7.812;2022-10-16T10:21:01;20.60;99.90
72206;DHT22;60111;48.286;7.812;2022-10-16T10:23:34;20.60;99.90
72206;DHT22;60111;48.286;7.812;2022-10-16T10:26:15;20.60;99.90
72206;DHT22;60111;48.286;7.812;2022-10-16T10:29:18;20.70;99.90
72206;DHT22;60111;48.286;7.812;2022-10-16T10:37:35;20.80;99.90
72206;DHT22;60111;48.286;7.812;2022-10-16T10:40:38;20.80;99.90
72206;DHT22;60111;48.286;7.812;2022-10-16T10:46:03;20.90;99.90
72206;DHT22;60111;48.286;7.812;2022-10-16T10:51:39;21.00;99.90
72206;DHT22;60111;48.286;7.812;2022-10-16T11:08:30;21.40;99.90
72206;DHT22;60111;48.286;7.812;2022-10-16T11:11:09;21.50;99.90
72206;DHT22;60111;48.286;7.812;2022-10-16T11:16:28;21.90;99.90
72206;DHT22;60111;48.286;7.812;2022-10-16T11:19:26;22.00;99.90
72206;DHT22;60111;48.286;7.812;2022-10-16T11:27:36;22.60;99.90
72206;DHT22;60111;48.286;7.812;2022-10-16T11:30:24;22.90;99.90
72206;DHT22;60111;48.286;7.812;2022-10-16T11:35:47;23.10;99.30
72206;DHT22;60111;48.286;7.812;2022-10-16T11:38:48;23.10;99.90
72206;DHT22;60111;48.286;7.812;2022-10-16T11:40:59;23.30;98.60
72206;DHT22;60111;48.286;7.812;2022-10-16T11:43:37;23.50;97.50
72206;DHT22;60111;48.286;7.812;2022-10-16T11:46:18;23.60;97.40
72206;DHT22;60111;48.286;7.812;2022-10-16T11:48:57;23.50;96.50
72206;DHT22;60111;48.286;7.812;2022-10-16T11:51:41;23.40;98.10
72206;DHT22;60111;48.286;7.812;2022-10-16T11:57:16;23.30;96.70
72206;DHT22;60111;48.286;7.812;2022-10-16T12:00:24;23.50;94.20
72206;DHT22;60111;48.286;7.812;2022-10-16T12:05:39;23.60;93.60
72206;DHT22;60111;48.286;7.812;2022-10-16T12:08:11;23.70;95.20
72206;DHT22;60111;48.286;7.812;2022-10-16T12:10:46;23.80;94.10
72206;DHT22;60111;48.286;7.812;2022-10-16T12:13:34;23.80;92.80
72206;DHT22;60111;48.286;7.812;2022-10-16T12:18:46;23.50;92.80
72206;DHT22;60111;48.286;7.812;2022-10-16T12:21:21;23.50;93.90
72206;DHT22;60111;48.286;7.812;2022-10-16T12:23:57;23.30;94.70
72206;DHT22;60111;48.286;7.812;2022-10-16T12:26:38;23.20;94.40
72206;DHT22;60111;48.286;7.812;2022-10-16T12:29:22;23.20;94.00
72206;DHT22;60111;48.286;7.812;2022-10-16T12:31:49;23.20;94.50
72206;DHT22;60111;48.286;7.812;2022-10-16T12:34:32;23.40;93.90
72206;DHT22;60111;48.286;7.812;2022-10-16T12:37:23;23.30;94.30
72206;DHT22;60111;48.286;7.812;2022-10-16T12:39:57;23.30;94.40
72206;DHT22;60111;48.286;7.812;2022-10-16T12:42:32;23.40;93.70
72206;DHT22;60111;48.286;7.812;2022-10-16T12:45:28;23.40;93.10
72206;DHT22;60111;48.286;7.812;2022-10-16T12:48:17;23.40;92.90
72206;DHT22;60111;48.286;7.812;2022-10-16T12:50:39;23.40;94.20
72206;DHT22;60111;48.286;7.812;2022-10-16T12:53:22;23.40;93.30
72206;DHT22;60111;48.286;7.812;2022-10-16T13:01:52;23.60;93.90
72206;DHT22;60111;48.286;7.812;2022-10-16T13:21:50;24.70;90.70
72206;DHT22;60111;48.286;7.812;2022-10-16T13:27:43;24.80;91.30
72206;DHT22;60111;48.286;7.812;2022-10-16T13:30:29;24.90;92.30
72206;DHT22;60111;48.286;7.812;2022-10-16T13:33:02;25.10;90.30
72206;DHT22;60111;48.286;7.812;2022-10-16T13:35:36;25.30;90.20
72206;DHT22;60111;48.286;7.812;2022-10-16T13:38:14;25.50;90.20
72206;DHT22;60111;48.286;7.812;2022-10-16T13:43:36;25.50;83.00
72206;DHT22;60111;48.286;7.812;2022-10-16T13:46:16;25.40;85.50
72206;DHT22;60111;48.286;7.812;2022-10-16T13:49:04;25.30;89.00
72206;DHT22;60111;48.286;7.812;2022-10-16T13:51:33;25.40;88.30
72206;DHT22;60111;48.286;7.812;2022-10-16T13:54:07;25.40;89.00
72206;DHT22;60111;48.286;7.812;2022-10-16T13:56:40;25.50;89.20
72206;DHT22;60111;48.286;7.812;2022-10-16T13:59:26;25.50;85.60
72206;DHT22;60111;48.286;7.812;2022-10-16T14:02:04;25.40;87.90
72206;DHT22;60111;48.286;7.812;2022-10-16T14:04:37;25.40;87.80
72206;DHT22;60111;48.286;7.812;2022-10-16T14:07:18;25.30;89.40
72206;DHT22;60111;48.286;7.812;2022-10-16T14:09:51;25.40;88.00
72206;DHT22;60111;48.286;7.812;2022-10-16T14:12:24;25.40;85.40
72206;DHT22;60111;48.286;7.812;2022-10-16T14:14:59;25.50;89.30
72206;DHT22;60111;48.286;7.812;2022-10-16T14:17:34;25.50;90.10
72206;DHT22;60111;48.286;7.812;2022-10-16T14:20:12;25.40;88.20
72206;DHT22;60111;48.286;7.812;2022-10-16T14:22:43;25.30;88.00
72206;DHT22;60111;48.286;7.812;2022-10-16T14:25:26;25.20;88.10
72206;DHT22;60111;48.286;7.812;2022-10-16T14:28:18;25.10;89.80
72206;DHT22;60111;48.286;7.812;2022-10-16T14:30:54;25.10;90.50
72206;DHT22;60111;48.286;7.812;2022-10-16T14:33:32;25.10;90.10
72206;DHT22;60111;48.286;7.812;2022-10-16T14:36:13;25.10;90.10
72206;DHT22;60111;48.286;7.812;2022-10-16T14:41:27;25.30;88.20
72206;DHT22;60111;48.286;7.812;2022-10-16T14:44:04;25.30;87.80
72206;DHT22;60111;48.286;7.812;2022-10-16T14:46:39;25.40;84.70
72206;DHT22;60111;48.286;7.812;2022-10-16T14:49:19;25.50;90.00
72206;DHT22;60111;48.286;7.812;2022-10-16T14:51:52;25.50;87.50
72206;DHT22;60111;48.286;7.812;2022-10-16T14:54:25;25.50;83.90
72206;DHT22;60111;48.286;7.812;2022-10-16T14:56:58;25.40;87.00
72206;DHT22;60111;48.286;7.812;2022-10-16T14:59:41;25.40;87.60
72206;DHT22;60111;48.286;7.812;2022-10-16T15:02:31;25.50;86.60
72206;DHT22;60111;48.286;7.812;2022-10-16T15:05:14;25.40;87.60
72206;DHT22;60111;48.286;7.812;2022-10-16T15:08:02;25.50;89.00
72206;DHT22;60111;48.286;7.812;2022-10-16T15:10:38;25.50;87.40
72206;DHT22;60111;48.286;7.812;2022-10-16T15:13:12;25.50;89.30
72206;DHT22;60111;48.286;7.812;2022-10-16T15:15:47;25.60;90.10
72206;DHT22;60111;48.286;7.812;2022-10-16T15:18:20;25.60;89.70
72206;DHT22;60111;48.286;7.812;2022-10-16T15:20:53;25.60;88.70
72206;DHT22;60111;48.286;7.812;2022-10-16T15:23:26;25.60;90.10
72206;DHT22;60111;48.286;7.812;2022-10-16T15:25:59;25.60;89.90
72206;DHT22;60111;48.286;7.812;2022-10-16T15:28:32;25.70;88.70
72206;DHT22;60111;48.286;7.812;2022-10-16T15:31:05;25.60;88.00
72206;DHT22;60111;48.286;7.812;2022-10-16T15:33:37;25.60;86.80
72206;DHT22;60111;48.286;7.812;2022-10-16T15:36:10;25.30;88.30
72206;DHT22;60111;48.286;7.812;2022-10-16T15:38:43;25.10;88.40
72206;DHT22;60111;48.286;7.812;2022-10-16T15:41:17;24.90;90.20
72206;DHT22;60111;48.286;7.812;2022-10-16T15:43:50;24.70;90.70
72206;DHT22;60111;48.286;7.812;2022-10-16T15:46:24;24.60;91.00
72206;DHT22;60111;48.286;7.812;2022-10-16T15:49:15;24.50;91.00
72206;DHT22;60111;48.286;7.812;2022-10-16T15:51:47;24.40;91.20
72206;DHT22;60111;48.286;7.812;2022-10-16T15:54:38;24.20;91.40
72206;DHT22;60111;48.286;7.812;2022-10-16T15:57:12;24.20;91.90
72206;DHT22;60111;48.286;7.812;2022-10-16T15:59:43;24.10;92.60
72206;DHT22;60111;48.286;7.812;2022-10-16T16:02:16;24.10;92.90
72206;DHT22;60111;48.286;7.812;2022-10-16T16:04:49;24.00;92.90
72206;DHT22;60111;48.286;7.812;2022-10-16T16:07:21;24.00;93.30
72206;DHT22;60111;48.286;7.812;2022-10-16T16:09:54;24.00;93.70
72206;DHT22;60111;48.286;7.812;2022-10-16T16:12:26;23.90;93.50
72206;DHT22;60111;48.286;7.812;2022-10-16T16:15:02;23.70;94.10
72206;DHT22;60111;48.286;7.812;2022-10-16T16:17:38;23.60;94.60
72206;DHT22;60111;48.286;7.812;2022-10-16T16:20:11;23.50;95.10
72206;DHT22;60111;48.286;7.812;2022-10-16T16:22:44;23.40;95.60
72206;DHT22;60111;48.286;7.812;2022-10-16T16:25:17;23.30;96.10
72206;DHT22;60111;48.286;7.812;2022-10-16T16:27:50;23.10;96.50
72206;DHT22;60111;48.286;7.812;2022-10-16T16:30:22;23.00;96.80
72206;DHT22;60111;48.286;7.812;2022-10-16T16:32:55;22.90;97.10
72206;DHT22;60111;48.286;7.812;2022-10-16T16:35:28;22.80;97.50
72206;DHT22;60111;48.286;7.812;2022-10-16T16:38:00;22.60;97.40
72206;DHT22;60111;48.286;7.812;2022-10-16T16:40:33;22.50;97.70
72206;DHT22;60111;48.286;7.812;2022-10-16T16:43:05;22.30;97.90
72206;DHT22;60111;48.286;7.812;2022-10-16T16:45:38;22.10;98.00
72206;DHT22;60111;48.286;7.812;2022-10-16T16:48:10;22.00;98.30
72206;DHT22;60111;48.286;7.812;2022-10-16T16:50:43;21.90;98.20
72206;DHT22;60111;48.286;7.812;2022-10-16T16:53:16;21.80;98.50
72206;DHT22;60111;48.286;7.812;2022-10-16T16:55:48;21.60;98.40
72206;DHT22;60111;48.286;7.812;2022-10-16T16:58:21;21.60;98.60
72206;DHT22;60111;48.286;7.812;2022-10-16T17:00:54;21.50;98.80
72206;DHT22;60111;48.286;7.812;2022-10-16T17:03:31;21.40;98.80
72206;DHT22;60111;48.286;7.812;2022-10-16T17:06:06;21.20;98.80
72206;DHT22;60111;48.286;7.812;2022-10-16T17:08:39;21.10;98.70
72206;DHT22;60111;48.286;7.812;2022-10-16T17:11:14;21.00;98.70
72206;DHT22;60111;48.286;7.812;2022-10-16T17:13:49;20.90;98.60
72206;DHT22;60111;48.286;7.812;2022-10-16T17:16:27;20.80;98.70
72206;DHT22;60111;48.286;7.812;2022-10-16T17:19:02;20.70;98.80
72206;DHT22;60111;48.286;7.812;2022-10-16T17:21:35;20.60;99.00
72206;DHT22;60111;48.286;7.812;2022-10-16T17:24:09;20.50;99.10
72206;DHT22;60111;48.286;7.812;2022-10-16T17:26:41;20.50;99.10
72206;DHT22;60111;48.286;7.812;2022-10-16T17:29:16;20.50;99.80
72206;DHT22;60111;48.286;7.812;2022-10-16T17:31:49;20.20;99.90
72206;DHT22;60111;48.286;7.812;2022-10-16T17:34:22;20.10;99.90
72206;DHT22;60111;48.286;7.812;2022-10-16T17:36:54;19.90;99.90
72206;DHT22;60111;48.286;7.812;2022-10-16T17:39:27;19.80;99.90
72206;DHT22;60111;48.286;7.812;2022-10-16T17:42:00;19.70;99.90
72206;DHT22;60111;48.286;7.812;2022-10-16T17:44:32;19.60;99.90
72206;DHT22;60111;48.286;7.812;2022-10-16T17:47:05;19.60;99.90
72206;DHT22;60111;48.286;7.812;2022-10-16T17:49:37;19.50;99.90
72206;DHT22;60111;48.286;7.812;2022-10-16T17:52:10;19.50;99.90
72206;DHT22;60111;48.286;7.812;2022-10-16T17:54:43;19.50;99.90
72206;DHT22;60111;48.286;7.812;2022-10-16T17:57:15;19.40;99.90
72206;DHT22;60111;48.286;7.812;2022-10-16T17:59:48;19.40;99.90
72206;DHT22;60111;48.286;7.812;2022-10-16T18:02:21;19.40;99.90
72206;DHT22;60111;48.286;7.812;2022-10-16T18:04:54;19.30;99.90
72206;DHT22;60111;48.286;7.812;2022-10-16T18:07:26;19.20;99.90
72206;DHT22;60111;48.286;7.812;2022-10-16T18:09:59;19.20;99.90
72206;DHT22;60111;48.286;7.812;2022-10-16T18:12:34;19.10;99.90
72206;DHT22;60111;48.286;7.812;2022-10-16T18:15:07;18.90;99.90